createdAt,value
2019-01-03T00:00:52.298Z,1038.78
2019-01-03T00:01:52.239Z,1038.8
2019-01-03T00:02:52.395Z,1038.82
2019-01-03T00:03:52.294Z,1038.77
2019-01-03T00:04:52.511Z,1038.82
2019-01-03T00:05:52.387Z,1038.86
2019-01-03T00:06:52.322Z,1038.86
2019-01-03T00:07:52.402Z,1038.87
2019-01-03T00:08:53.491Z,1038.86
2019-01-03T00:09:52.597Z,1038.88
2019-01-03T00:10:52.356Z,1038.82
2019-01-03T00:11:52.789Z,1038.82
2019-01-03T00:12:52.422Z,1038.81
2019-01-03T00:13:52.746Z,1038.84
2019-01-03T00:14:52.312Z,1038.9
2019-01-03T00:15:52.471Z,1038.9
2019-01-03T00:16:52.402Z,1038.91
2019-01-03T00:17:52.381Z,1038.86
2019-01-03T00:18:52.522Z,1038.88
2019-01-03T00:19:52.239Z,1038.93
2019-01-03T00:20:52.319Z,1039.05
2019-01-03T00:21:52.373Z,1039.01
2019-01-03T00:22:52.520Z,1039.03
2019-01-03T00:23:52.410Z,1039.05
2019-01-03T00:24:52.296Z,1038.99
2019-01-03T00:25:53.053Z,1038.99
2019-01-03T00:26:54.062Z,1039.01
2019-01-03T00:27:52.218Z,1039.02
2019-01-03T00:28:52.228Z,1038.98
2019-01-03T00:29:52.244Z,1039.07
2019-01-03T00:30:52.390Z,1039.07
2019-01-03T00:31:52.338Z,1038.99
2019-01-03T00:32:52.268Z,1039.03
2019-01-03T00:33:52.326Z,1039.04
2019-01-03T00:34:52.301Z,1039.02
2019-01-03T00:35:52.426Z,1038.99
2019-01-03T00:36:52.209Z,1039.03
2019-01-03T00:37:52.317Z,1039.06
2019-01-03T00:38:52.368Z,1039.01
2019-01-03T00:39:52.182Z,1038.99
2019-01-03T00:40:52.568Z,1039
2019-01-03T00:41:52.275Z,1038.98
2019-01-03T00:42:52.242Z,1038.97
2019-01-03T00:43:52.237Z,1038.96
2019-01-03T00:44:52.278Z,1038.93
2019-01-03T00:45:52.442Z,1038.94
2019-01-03T00:46:52.381Z,1038.99
2019-01-03T00:47:52.354Z,1038.95
2019-01-03T00:48:52.308Z,1038.98
2019-01-03T00:49:52.176Z,1038.99
2019-01-03T00:50:52.382Z,1038.98
2019-01-03T00:51:52.373Z,1038.97
2019-01-03T00:52:52.367Z,1038.97
2019-01-03T00:53:52.425Z,1039.02
2019-01-03T00:54:52.355Z,1038.98
2019-01-03T00:55:52.183Z,1038.96
2019-01-03T00:56:52.270Z,1038.97
2019-01-03T00:57:52.365Z,1038.99
2019-01-03T00:58:52.159Z,1038.96
2019-01-03T00:59:52.501Z,1039
2019-01-03T01:00:52.251Z,1039.01
2019-01-03T01:01:52.529Z,1039.03
2019-01-03T01:02:52.308Z,1039.02
2019-01-03T01:03:52.629Z,1038.97
2019-01-03T01:04:52.354Z,1039.01
2019-01-03T01:05:52.165Z,1039.02
2019-01-03T01:06:52.241Z,1039.04
2019-01-03T01:07:52.293Z,1039.04
2019-01-03T01:08:52.429Z,1039.01
2019-01-03T01:09:52.194Z,1039.02
2019-01-03T01:10:52.474Z,1039.02
2019-01-03T01:11:52.562Z,1039.04
2019-01-03T01:12:52.419Z,1039.06
2019-01-03T01:13:52.134Z,1039.03
2019-01-03T01:14:52.196Z,1039
2019-01-03T01:15:52.401Z,1039.04
2019-01-03T01:16:52.288Z,1039.03
2019-01-03T01:17:52.184Z,1039.04
2019-01-03T01:18:52.173Z,1039.05
2019-01-03T01:19:52.236Z,1039
2019-01-03T01:20:52.139Z,1039.05
2019-01-03T01:21:52.309Z,1039.03
2019-01-03T01:22:52.148Z,1039.06
2019-01-03T01:23:52.438Z,1039.04
2019-01-03T01:24:52.175Z,1039.05
2019-01-03T01:25:52.385Z,1039.07
2019-01-03T01:26:52.144Z,1039.06
2019-01-03T01:27:52.179Z,1039.08
2019-01-03T01:28:52.209Z,1039.09
2019-01-03T01:29:52.165Z,1039.16
2019-01-03T01:30:52.225Z,1039.15
2019-01-03T01:31:52.208Z,1039.12
2019-01-03T01:32:52.224Z,1039.13
2019-01-03T01:33:52.120Z,1039.16
2019-01-03T01:34:52.153Z,1039.15
2019-01-03T01:35:52.102Z,1039.19
2019-01-03T01:36:52.094Z,1039.21
2019-01-03T01:37:52.142Z,1039.19
2019-01-03T01:38:52.144Z,1039.26
2019-01-03T01:39:52.574Z,1039.22
2019-01-03T01:40:52.106Z,1039.26
2019-01-03T01:41:52.203Z,1039.32
2019-01-03T01:42:52.108Z,1039.28
2019-01-03T01:43:52.374Z,1039.3
2019-01-03T01:44:52.123Z,1039.3
2019-01-03T01:45:52.126Z,1039.31
2019-01-03T01:46:52.375Z,1039.32
2019-01-03T01:47:52.565Z,1039.35
2019-01-03T01:48:52.537Z,1039.32
2019-01-03T01:49:52.200Z,1039.29
2019-01-03T01:50:52.216Z,1039.34
2019-01-03T01:51:52.174Z,1039.33
2019-01-03T01:52:52.929Z,1039.32
2019-01-03T01:53:53.203Z,1039.3
2019-01-03T01:54:52.119Z,1039.34
2019-01-03T01:55:52.928Z,1039.37
2019-01-03T01:56:52.132Z,1039.35
2019-01-03T01:57:52.259Z,1039.32
2019-01-03T01:58:52.287Z,1039.37
2019-01-03T01:59:52.374Z,1039.39
2019-01-03T02:00:52.235Z,1039.36
2019-01-03T02:01:52.558Z,1039.34
2019-01-03T02:02:52.147Z,1039.41
2019-01-03T02:03:52.202Z,1039.38
2019-01-03T02:04:52.119Z,1039.41
2019-01-03T02:05:52.149Z,1039.4
2019-01-03T02:06:52.462Z,1039.45
2019-01-03T02:07:52.282Z,1039.39
2019-01-03T02:08:51.875Z,1039.41
2019-01-03T02:09:52.876Z,1039.42
2019-01-03T02:10:52.172Z,1039.43
2019-01-03T02:11:52.303Z,1039.41
2019-01-03T02:12:52.484Z,1039.42
2019-01-03T02:13:52.389Z,1039.4
2019-01-03T02:14:52.081Z,1039.39
2019-01-03T02:15:52.041Z,1039.41
2019-01-03T02:16:52.283Z,1039.44
2019-01-03T02:17:52.272Z,1039.47
2019-01-03T02:18:52.221Z,1039.44
2019-01-03T02:19:52.228Z,1039.44
2019-01-03T02:20:52.260Z,1039.44
2019-01-03T02:21:52.419Z,1039.45
2019-01-03T02:22:52.169Z,1039.48
2019-01-03T02:23:52.931Z,1039.39
2019-01-03T02:24:52.649Z,1039.46
2019-01-03T02:25:52.204Z,1039.38
2019-01-03T02:26:52.319Z,1039.37
2019-01-03T02:27:52.378Z,1039.36
2019-01-03T02:28:52.223Z,1039.38
2019-01-03T02:29:52.191Z,1039.38
2019-01-03T02:30:52.965Z,1039.36
2019-01-03T02:31:52.286Z,1039.33
2019-01-03T02:32:52.055Z,1039.35
2019-01-03T02:33:52.449Z,1039.36
2019-01-03T02:34:52.289Z,1039.33
2019-01-03T02:35:52.012Z,1039.39
2019-01-03T02:36:52.732Z,1039.37
2019-01-03T02:37:52.028Z,1039.4
2019-01-03T02:38:52.876Z,1039.41
2019-01-03T02:39:52.449Z,1039.4
2019-01-03T02:40:52.181Z,1039.37
2019-01-03T02:41:52.239Z,1039.42
2019-01-03T02:42:52.653Z,1039.43
2019-01-03T02:43:52.154Z,1039.41
2019-01-03T02:44:52.089Z,1039.33
2019-01-03T02:45:52.277Z,1039.38
2019-01-03T02:46:52.424Z,1039.36
2019-01-03T02:47:52.418Z,1039.38
2019-01-03T02:48:52.185Z,1039.37
2019-01-03T02:49:52.175Z,1039.35
2019-01-03T02:50:52.216Z,1039.46
2019-01-03T02:51:52.149Z,1039.42
2019-01-03T02:52:52.437Z,1039.42
2019-01-03T02:53:52.533Z,1039.47
2019-01-03T02:54:52.295Z,1039.43
2019-01-03T02:55:52.031Z,1039.46
2019-01-03T02:56:52.112Z,1039.42
2019-01-03T02:57:52.049Z,1039.39
2019-01-03T02:58:52.478Z,1039.4
2019-01-03T02:59:52.040Z,1039.35
2019-01-03T03:00:52.320Z,1039.34
2019-01-03T03:01:52.188Z,1039.35
2019-01-03T03:02:52.384Z,1039.34
2019-01-03T03:03:52.132Z,1039.31
2019-01-03T03:04:52.605Z,1039.31
2019-01-03T03:05:52.278Z,1039.28
2019-01-03T03:06:52.642Z,1039.21
2019-01-03T03:07:52.338Z,1039.18
2019-01-03T03:08:52.171Z,1039.15
2019-01-03T03:09:52.330Z,1039.12
2019-01-03T03:10:52.494Z,1039.14
2019-01-03T03:11:52.055Z,1039.16
2019-01-03T03:12:52.032Z,1039.05
2019-01-03T03:13:52.096Z,1039.11
2019-01-03T03:14:52.000Z,1039.08
2019-01-03T03:15:52.025Z,1039.1
2019-01-03T03:16:52.338Z,1039.1
2019-01-03T03:17:52.217Z,1039.15
2019-01-03T03:18:52.008Z,1039.06
2019-01-03T03:19:51.988Z,1039.09
2019-01-03T03:20:52.198Z,1039.07
2019-01-03T03:21:52.205Z,1039.08
2019-01-03T03:22:51.978Z,1039
2019-01-03T03:23:52.729Z,1039.1
2019-01-03T03:24:53.705Z,1039.02
2019-01-03T03:25:52.035Z,1039.02
2019-01-03T03:26:52.246Z,1039
2019-01-03T03:27:52.120Z,1038.95
2019-01-03T03:28:52.325Z,1038.95
2019-01-03T03:29:51.934Z,1038.86
2019-01-03T03:30:52.183Z,1038.91
2019-01-03T03:31:51.966Z,1038.89
2019-01-03T03:32:52.270Z,1038.97
2019-01-03T03:33:52.455Z,1038.96
2019-01-03T03:34:52.167Z,1039.02
2019-01-03T03:35:52.285Z,1039.01
2019-01-03T03:36:52.073Z,1039.02
2019-01-03T03:37:51.999Z,1039.04
2019-01-03T03:38:52.303Z,1039.07
2019-01-03T03:39:52.245Z,1039.03
2019-01-03T03:40:51.743Z,1039.04
2019-01-03T03:41:51.935Z,1039.05
2019-01-03T03:42:52.084Z,1039.02
2019-01-03T03:43:52.296Z,1039.01
2019-01-03T03:44:51.943Z,1039.01
2019-01-03T03:45:52.701Z,1039.04
2019-01-03T03:46:52.420Z,1039.03
2019-01-03T03:47:52.764Z,1039.1
2019-01-03T03:48:51.966Z,1039.01
2019-01-03T03:49:52.073Z,1039.01
2019-01-03T03:50:52.183Z,1039.03
2019-01-03T03:51:52.148Z,1038.94
2019-01-03T03:52:52.185Z,1038.91
2019-01-03T03:53:52.086Z,1038.93
2019-01-03T03:54:52.277Z,1038.91
2019-01-03T03:55:51.933Z,1038.84
2019-01-03T03:56:52.054Z,1038.82
2019-01-03T03:57:52.359Z,1038.77
2019-01-03T03:58:52.018Z,1038.8
2019-01-03T03:59:52.178Z,1038.78
2019-01-03T04:00:52.285Z,1038.74
2019-01-03T04:01:52.097Z,1038.78
2019-01-03T04:02:51.969Z,1038.82
2019-01-03T04:03:52.072Z,1038.86
2019-01-03T04:04:52.101Z,1038.85
2019-01-03T04:05:52.221Z,1038.83
2019-01-03T04:06:52.263Z,1038.83
2019-01-03T04:07:52.165Z,1038.8
2019-01-03T04:08:52.129Z,1038.8
2019-01-03T04:09:52.031Z,1038.76
2019-01-03T04:10:52.410Z,1038.75
2019-01-03T04:11:52.162Z,1038.73
2019-01-03T04:12:52.221Z,1038.74
2019-01-03T04:13:52.242Z,1038.77
2019-01-03T04:14:52.751Z,1038.76
2019-01-03T04:15:52.085Z,1038.73
2019-01-03T04:16:52.124Z,1038.69
2019-01-03T04:17:52.224Z,1038.72
2019-01-03T04:18:52.054Z,1038.68
2019-01-03T04:19:52.015Z,1038.68
2019-01-03T04:20:52.067Z,1038.67
2019-01-03T04:21:51.963Z,1038.67
2019-01-03T04:22:52.136Z,1038.67
2019-01-03T04:23:51.945Z,1038.67
2019-01-03T04:24:52.630Z,1038.68
2019-01-03T04:25:51.997Z,1038.64
2019-01-03T04:26:52.113Z,1038.68
2019-01-03T04:27:52.695Z,1038.62
2019-01-03T04:28:52.106Z,1038.65
2019-01-03T04:29:52.003Z,1038.69
2019-01-03T04:30:52.113Z,1038.7
2019-01-03T04:31:51.979Z,1038.7
2019-01-03T04:32:52.087Z,1038.74
2019-01-03T04:33:52.174Z,1038.76
2019-01-03T04:34:52.223Z,1038.79
2019-01-03T04:35:52.267Z,1038.7
2019-01-03T04:36:51.958Z,1038.73
2019-01-03T04:37:52.117Z,1038.74
2019-01-03T04:38:52.686Z,1038.74
2019-01-03T04:39:52.009Z,1038.74
2019-01-03T04:40:52.274Z,1038.69
2019-01-03T04:41:51.958Z,1038.73
2019-01-03T04:42:52.520Z,1038.66
2019-01-03T04:43:52.118Z,1038.62
2019-01-03T04:44:52.216Z,1038.65
2019-01-03T04:45:52.023Z,1038.61
2019-01-03T04:46:51.846Z,1038.59
2019-01-03T04:47:52.022Z,1038.56
2019-01-03T04:48:51.963Z,1038.56
2019-01-03T04:49:51.994Z,1038.57
2019-01-03T04:50:52.034Z,1038.52
2019-01-03T04:51:51.935Z,1038.5
2019-01-03T04:52:51.921Z,1038.45
2019-01-03T04:53:51.935Z,1038.46
2019-01-03T04:54:51.963Z,1038.49
2019-01-03T04:55:51.918Z,1038.51
2019-01-03T04:56:52.073Z,1038.53
2019-01-03T04:57:52.096Z,1038.61
2019-01-03T04:58:52.058Z,1038.61
2019-01-03T04:59:52.076Z,1038.7
2019-01-03T05:00:52.040Z,1038.8
2019-01-03T05:01:51.963Z,1038.85
2019-01-03T05:02:51.934Z,1038.89
2019-01-03T05:03:51.938Z,1038.8
2019-01-03T05:04:51.912Z,1038.79
2019-01-03T05:05:51.921Z,1038.68
2019-01-03T05:06:51.847Z,1038.68
2019-01-03T05:07:51.966Z,1038.64
2019-01-03T05:08:52.010Z,1038.67
2019-01-03T05:09:51.981Z,1038.71
2019-01-03T05:10:52.122Z,1038.68
2019-01-03T05:11:51.950Z,1038.7
2019-01-03T05:12:51.833Z,1038.68
2019-01-03T05:13:51.779Z,1038.63
2019-01-03T05:14:52.014Z,1038.59
2019-01-03T05:15:52.096Z,1038.58
2019-01-03T05:16:52.283Z,1038.59
2019-01-03T05:17:51.942Z,1038.53
2019-01-03T05:18:51.805Z,1038.49
2019-01-03T05:19:52.094Z,1038.45
2019-01-03T05:20:51.814Z,1038.5
2019-01-03T05:21:52.004Z,1038.52
2019-01-03T05:22:52.138Z,1038.53
2019-01-03T05:23:57.758Z,1038.64
2019-01-03T05:24:52.209Z,1038.61
2019-01-03T05:25:51.927Z,1038.65
2019-01-03T05:26:51.785Z,1038.64
2019-01-03T05:27:52.247Z,1038.68
2019-01-03T05:28:52.554Z,1038.64
2019-01-03T05:29:52.083Z,1038.68
2019-01-03T05:30:51.932Z,1038.76
2019-01-03T05:31:52.084Z,1038.66
2019-01-03T05:32:52.129Z,1038.6
2019-01-03T05:33:51.776Z,1038.64
2019-01-03T05:34:51.771Z,1038.66
2019-01-03T05:35:52.150Z,1038.67
2019-01-03T05:36:52.004Z,1038.62
2019-01-03T05:37:52.038Z,1038.75
2019-01-03T05:38:52.003Z,1038.79
2019-01-03T05:39:51.760Z,1038.75
2019-01-03T05:40:51.752Z,1038.72
2019-01-03T05:41:52.099Z,1038.71
2019-01-03T05:42:52.250Z,1038.68
2019-01-03T05:43:51.806Z,1038.75
2019-01-03T05:44:52.050Z,1038.81
2019-01-03T05:45:51.991Z,1038.82
2019-01-03T05:46:52.242Z,1038.83
2019-01-03T05:47:51.913Z,1038.74
2019-01-03T05:48:51.983Z,1038.73
2019-01-03T05:49:51.942Z,1038.64
2019-01-03T05:50:51.589Z,1038.55
2019-01-03T05:51:52.501Z,1038.6
2019-01-03T05:52:51.756Z,1038.52
2019-01-03T05:53:51.926Z,1038.53
2019-01-03T05:54:52.022Z,1038.55
2019-01-03T05:55:51.992Z,1038.51
2019-01-03T05:56:51.761Z,1038.59
2019-01-03T05:57:51.997Z,1038.57
2019-01-03T05:58:52.644Z,1038.58
2019-01-03T05:59:51.940Z,1038.59
2019-01-03T06:00:51.768Z,1038.6
2019-01-03T06:01:52.583Z,1038.62
2019-01-03T06:02:51.798Z,1038.61
2019-01-03T06:03:52.114Z,1038.63
2019-01-03T06:04:52.091Z,1038.57
2019-01-03T06:05:51.719Z,1038.62
2019-01-03T06:06:52.293Z,1038.66
2019-01-03T06:07:52.087Z,1038.7
2019-01-03T06:08:51.904Z,1038.73
2019-01-03T06:09:51.732Z,1038.75
2019-01-03T06:10:51.821Z,1038.73
2019-01-03T06:11:51.917Z,1038.76
2019-01-03T06:12:52.298Z,1038.78
2019-01-03T06:13:51.984Z,1038.79
2019-01-03T06:14:52.382Z,1038.79
2019-01-03T06:15:52.410Z,1038.76
2019-01-03T06:16:52.089Z,1038.81
2019-01-03T06:17:51.807Z,1038.76
2019-01-03T06:18:51.794Z,1038.77
2019-01-03T06:19:51.946Z,1038.83
2019-01-03T06:20:51.957Z,1038.84
2019-01-03T06:21:51.955Z,1038.82
2019-01-03T06:22:52.280Z,1038.84
2019-01-03T06:23:52.000Z,1038.84
2019-01-03T06:24:51.964Z,1038.83
2019-01-03T06:25:51.708Z,1038.83
2019-01-03T06:26:51.852Z,1038.78
2019-01-03T06:27:51.947Z,1038.81
2019-01-03T06:28:52.020Z,1038.82
2019-01-03T06:29:51.690Z,1038.81
2019-01-03T06:30:52.199Z,1038.82
2019-01-03T06:31:51.818Z,1038.83
2019-01-03T06:32:52.215Z,1038.84
2019-01-03T06:33:51.812Z,1038.86
2019-01-03T06:34:51.752Z,1038.84
2019-01-03T06:35:51.964Z,1038.88
2019-01-03T06:36:51.789Z,1038.83
2019-01-03T06:37:51.668Z,1038.81
2019-01-03T06:38:51.666Z,1038.82
2019-01-03T06:39:51.650Z,1038.79
2019-01-03T06:40:51.692Z,1038.84
2019-01-03T06:41:51.674Z,1038.8
2019-01-03T06:42:52.075Z,1038.91
2019-01-03T06:43:51.692Z,1038.82
2019-01-03T06:44:51.728Z,1038.81
2019-01-03T06:45:51.693Z,1038.84
2019-01-03T06:46:51.683Z,1038.88
2019-01-03T06:47:52.129Z,1038.81
2019-01-03T06:48:51.916Z,1038.8
2019-01-03T06:49:51.665Z,1038.79
2019-01-03T06:50:51.935Z,1038.83
2019-01-03T06:51:51.942Z,1038.88
2019-01-03T06:52:51.695Z,1038.81
2019-01-03T06:53:51.805Z,1038.89
2019-01-03T06:54:51.935Z,1038.91
2019-01-03T06:55:52.328Z,1038.92
2019-01-03T06:56:51.818Z,1038.94
2019-01-03T06:57:52.061Z,1038.93
2019-01-03T06:58:51.793Z,1038.95
2019-01-03T06:59:51.660Z,1039.01
2019-01-03T07:00:52.018Z,1039
2019-01-03T07:01:51.808Z,1039.05
2019-01-03T07:02:51.910Z,1038.98
2019-01-03T07:03:52.153Z,1039.01
2019-01-03T07:04:51.732Z,1039.02
2019-01-03T07:05:51.880Z,1039.07
2019-01-03T07:06:52.005Z,1039.09
2019-01-03T07:07:51.888Z,1039.14
2019-01-03T07:08:51.666Z,1039.13
2019-01-03T07:09:51.617Z,1039.19
2019-01-03T07:10:52.074Z,1039.17
2019-01-03T07:11:51.766Z,1039.21
2019-01-03T07:12:51.901Z,1039.24
2019-01-03T07:13:52.048Z,1039.2
2019-01-03T07:14:51.663Z,1039.2
2019-01-03T07:15:52.526Z,1039.22
2019-01-03T07:16:52.003Z,1039.26
2019-01-03T07:17:51.712Z,1039.26
2019-01-03T07:18:51.631Z,1039.25
2019-01-03T07:19:51.987Z,1039.25
2019-01-03T07:20:51.894Z,1039.25
2019-01-03T07:21:52.041Z,1039.29
2019-01-03T07:22:51.737Z,1039.24
2019-01-03T07:23:51.646Z,1039.25
2019-01-03T07:24:51.879Z,1039.24
2019-01-03T07:25:53.405Z,1039.25
2019-01-03T07:26:52.011Z,1039.27
2019-01-03T07:27:52.003Z,1039.28
2019-01-03T07:28:55.808Z,1039.24
2019-01-03T07:29:51.994Z,1039.25
2019-01-03T07:30:52.439Z,1039.23
2019-01-03T07:31:51.641Z,1039.2
2019-01-03T07:32:51.708Z,1039.21
2019-01-03T07:33:51.947Z,1039.23
2019-01-03T07:34:51.996Z,1039.16
2019-01-03T07:35:51.961Z,1039.2
2019-01-03T07:36:51.939Z,1039.18
2019-01-03T07:37:51.587Z,1039.24
2019-01-03T07:38:52.943Z,1039.17
2019-01-03T07:39:51.726Z,1039.19
2019-01-03T07:40:51.832Z,1039.2
2019-01-03T07:41:51.796Z,1039.14
2019-01-03T07:42:51.942Z,1039.2
2019-01-03T07:43:51.991Z,1039.22
2019-01-03T07:44:51.718Z,1039.21
2019-01-03T07:45:51.607Z,1039.28
2019-01-03T07:46:51.889Z,1039.2
2019-01-03T07:47:51.966Z,1039.24
2019-01-03T07:48:51.963Z,1039.23
2019-01-03T07:49:51.577Z,1039.23
2019-01-03T07:50:51.583Z,1039.23
2019-01-03T07:51:51.764Z,1039.21
2019-01-03T07:52:52.100Z,1039.26
2019-01-03T07:53:51.652Z,1039.22
2019-01-03T07:54:52.445Z,1039.23
2019-01-03T07:55:52.201Z,1039.27
2019-01-03T07:56:51.565Z,1039.28
2019-01-03T07:57:51.577Z,1039.31
2019-01-03T07:58:51.939Z,1039.3
2019-01-03T07:59:51.764Z,1039.33
2019-01-03T08:00:51.780Z,1039.29
2019-01-03T08:01:51.546Z,1039.32
2019-01-03T08:02:51.903Z,1039.32
2019-01-03T08:03:52.031Z,1039.29
2019-01-03T08:04:51.798Z,1039.35
2019-01-03T08:05:51.581Z,1039.33
2019-01-03T08:06:52.456Z,1039.36
2019-01-03T08:07:51.614Z,1039.33
2019-01-03T08:08:52.194Z,1039.31
2019-01-03T08:09:51.776Z,1039.4
2019-01-03T08:10:51.663Z,1039.38
2019-01-03T08:11:51.767Z,1039.36
2019-01-03T08:12:51.514Z,1039.32
2019-01-03T08:13:51.685Z,1039.3
2019-01-03T08:14:51.722Z,1039.34
2019-01-03T08:15:52.637Z,1039.33
2019-01-03T08:16:51.789Z,1039.34
2019-01-03T08:17:51.624Z,1039.33
2019-01-03T08:18:51.913Z,1039.39
2019-01-03T08:19:51.786Z,1039.35
2019-01-03T08:20:51.529Z,1039.44
2019-01-03T08:21:51.567Z,1039.49
2019-01-03T08:22:51.933Z,1039.54
2019-01-03T08:23:52.046Z,1039.51
2019-01-03T08:24:51.952Z,1039.47
2019-01-03T08:25:52.005Z,1039.47
2019-01-03T08:26:51.949Z,1039.45
2019-01-03T08:27:51.607Z,1039.45
2019-01-03T08:28:51.584Z,1039.42
2019-01-03T08:29:51.556Z,1039.46
2019-01-03T08:30:51.570Z,1039.42
2019-01-03T08:31:51.691Z,1039.36
2019-01-03T08:32:51.510Z,1039.4
2019-01-03T08:33:51.567Z,1039.43
2019-01-03T08:34:51.529Z,1039.39
2019-01-03T08:35:51.658Z,1039.39
2019-01-03T08:36:51.664Z,1039.38
2019-01-03T08:37:51.744Z,1039.39
2019-01-03T08:38:52.341Z,1039.36
2019-01-03T08:39:51.815Z,1039.31
2019-01-03T08:40:51.756Z,1039.35
2019-01-03T08:41:51.897Z,1039.39
2019-01-03T08:42:51.536Z,1039.42
2019-01-03T08:43:51.861Z,1039.44
2019-01-03T08:44:51.920Z,1039.47
2019-01-03T08:45:52.005Z,1039.46
2019-01-03T08:46:51.583Z,1039.48
2019-01-03T08:47:51.412Z,1039.47
2019-01-03T08:48:51.633Z,1039.46
2019-01-03T08:49:51.511Z,1039.52
2019-01-03T08:50:51.635Z,1039.5
2019-01-03T08:51:51.506Z,1039.49
2019-01-03T08:52:51.871Z,1039.42
2019-01-03T08:53:51.540Z,1039.44
2019-01-03T08:54:52.018Z,1039.45
2019-01-03T08:55:51.604Z,1039.44
2019-01-03T08:56:51.850Z,1039.44
2019-01-03T08:57:51.505Z,1039.53
2019-01-03T08:58:51.700Z,1039.51
2019-01-03T08:59:51.594Z,1039.47
2019-01-03T09:00:51.895Z,1039.46
2019-01-03T09:01:51.483Z,1039.48
2019-01-03T09:02:51.714Z,1039.51
2019-01-03T09:03:51.673Z,1039.53
2019-01-03T09:04:52.527Z,1039.52
2019-01-03T09:05:51.528Z,1039.55
2019-01-03T09:06:51.441Z,1039.54
2019-01-03T09:07:51.472Z,1039.57
2019-01-03T09:08:51.480Z,1039.6
2019-01-03T09:09:51.488Z,1039.61
2019-01-03T09:10:51.894Z,1039.61
2019-01-03T09:11:51.574Z,1039.6
2019-01-03T09:12:51.530Z,1039.6
2019-01-03T09:13:51.956Z,1039.59
2019-01-03T09:14:51.968Z,1039.55
2019-01-03T09:15:51.733Z,1039.54
2019-01-03T09:16:51.483Z,1039.58
2019-01-03T09:17:51.741Z,1039.58
2019-01-03T09:18:51.462Z,1039.66
2019-01-03T09:19:51.629Z,1039.64
2019-01-03T09:20:52.098Z,1039.65
2019-01-03T09:21:51.792Z,1039.66
2019-01-03T09:22:51.618Z,1039.64
2019-01-03T09:23:51.723Z,1039.63
2019-01-03T09:24:52.145Z,1039.63
2019-01-03T09:25:51.527Z,1039.63
2019-01-03T09:26:51.594Z,1039.57
2019-01-03T09:27:51.670Z,1039.55
2019-01-03T09:28:52.334Z,1039.5
2019-01-03T09:29:51.655Z,1039.58
2019-01-03T09:30:51.503Z,1039.6
2019-01-03T09:31:51.611Z,1039.55
2019-01-03T09:32:51.468Z,1039.56
2019-01-03T09:33:51.462Z,1039.58
2019-01-03T09:34:51.527Z,1039.58
2019-01-03T09:35:51.448Z,1039.62
2019-01-03T09:36:51.564Z,1039.59
2019-01-03T09:37:51.571Z,1039.64
2019-01-03T09:38:51.554Z,1039.71
2019-01-03T09:39:51.893Z,1039.71
2019-01-03T09:40:51.831Z,1039.73
2019-01-03T09:41:51.925Z,1039.73
2019-01-03T09:42:55.513Z,1039.78
2019-01-03T09:43:51.488Z,1039.81
2019-01-03T09:44:51.960Z,1039.76
2019-01-03T09:45:51.623Z,1039.77
2019-01-03T09:46:51.667Z,1039.75
2019-01-03T09:47:52.815Z,1039.74
2019-01-03T09:48:51.577Z,1039.72
2019-01-03T09:49:51.918Z,1039.77
2019-01-03T09:50:51.678Z,1039.69
2019-01-03T09:51:51.457Z,1039.68
2019-01-03T09:52:51.664Z,1039.67
2019-01-03T09:53:51.440Z,1039.7
2019-01-03T09:54:51.646Z,1039.62
2019-01-03T09:55:51.936Z,1039.67
2019-01-03T09:56:51.964Z,1039.61
2019-01-03T09:57:51.625Z,1039.6
2019-01-03T09:58:51.925Z,1039.56
2019-01-03T09:59:51.413Z,1039.57
2019-01-03T10:00:51.959Z,1039.56
2019-01-03T10:01:51.587Z,1039.52
2019-01-03T10:02:51.408Z,1039.53
2019-01-03T10:03:51.586Z,1039.52
2019-01-03T10:04:51.489Z,1039.5
2019-01-03T10:05:51.446Z,1039.55
2019-01-03T10:06:51.467Z,1039.5
2019-01-03T10:07:51.884Z,1039.56
2019-01-03T10:08:52.641Z,1039.53
2019-01-03T10:09:51.490Z,1039.51
2019-01-03T10:10:51.373Z,1039.4
2019-01-03T10:11:51.422Z,1039.36
2019-01-03T10:12:51.425Z,1039.43
2019-01-03T10:13:51.377Z,1039.36
2019-01-03T10:14:51.444Z,1039.37
2019-01-03T10:15:51.423Z,1039.4
2019-01-03T10:16:51.630Z,1039.39
2019-01-03T10:17:51.372Z,1039.34
2019-01-03T10:18:51.957Z,1039.34
2019-01-03T10:19:51.370Z,1039.29
2019-01-03T10:20:51.480Z,1039.32
2019-01-03T10:21:51.540Z,1039.24
2019-01-03T10:22:51.392Z,1039.28
2019-01-03T10:23:51.889Z,1039.25
2019-01-03T10:24:51.546Z,1039.26
2019-01-03T10:25:52.284Z,1039.32
2019-01-03T10:26:51.825Z,1039.27
2019-01-03T10:27:51.459Z,1039.31
2019-01-03T10:28:51.467Z,1039.28
2019-01-03T10:29:51.606Z,1039.27
2019-01-03T10:30:51.466Z,1039.26
2019-01-03T10:31:51.685Z,1039.23
2019-01-03T10:32:51.359Z,1039.26
2019-01-03T10:33:51.370Z,1039.3
2019-01-03T10:34:52.523Z,1039.3
2019-01-03T10:35:51.693Z,1039.34
2019-01-03T10:36:51.419Z,1039.33
2019-01-03T10:37:51.640Z,1039.29
2019-01-03T10:38:51.638Z,1039.33
2019-01-03T10:39:51.560Z,1039.27
2019-01-03T10:40:51.542Z,1039.26
2019-01-03T10:41:51.997Z,1039.28
2019-01-03T10:42:51.337Z,1039.22
2019-01-03T10:43:51.610Z,1039.23
2019-01-03T10:44:51.648Z,1039.13
2019-01-03T10:45:52.162Z,1039.14
2019-01-03T10:46:51.503Z,1039.11
2019-01-03T10:47:51.677Z,1039.11
2019-01-03T10:48:51.385Z,1039.06
2019-01-03T10:49:51.577Z,1039.05
2019-01-03T10:50:51.306Z,1039.05
2019-01-03T10:51:51.712Z,1039.09
2019-01-03T10:52:52.156Z,1039.03
2019-01-03T10:53:51.384Z,1039.03
2019-01-03T10:54:51.676Z,1039.06
2019-01-03T10:55:51.543Z,1039.01
2019-01-03T10:56:51.522Z,1039
2019-01-03T10:57:51.328Z,1038.98
2019-01-03T10:58:51.977Z,1038.92
2019-01-03T10:59:51.738Z,1038.89
2019-01-03T11:00:51.809Z,1038.93
2019-01-03T11:01:52.157Z,1038.94
2019-01-03T11:02:51.891Z,1038.9
2019-01-03T11:03:51.949Z,1038.88
2019-01-03T11:04:51.366Z,1038.94
2019-01-03T11:05:51.606Z,1038.87
2019-01-03T11:06:51.508Z,1038.91
2019-01-03T11:07:51.387Z,1038.87
2019-01-03T11:08:51.539Z,1038.85
2019-01-03T11:09:51.600Z,1038.88
2019-01-03T11:10:51.887Z,1038.84
2019-01-03T11:11:51.670Z,1038.82
2019-01-03T11:12:51.553Z,1038.83
2019-01-03T11:13:51.667Z,1038.8
2019-01-03T11:14:51.873Z,1038.81
2019-01-03T11:15:51.634Z,1038.79
2019-01-03T11:16:51.595Z,1038.77
2019-01-03T11:17:51.639Z,1038.71
2019-01-03T11:18:51.431Z,1038.72
2019-01-03T11:19:51.609Z,1038.68
2019-01-03T11:20:51.447Z,1038.72
2019-01-03T11:21:51.591Z,1038.71
2019-01-03T11:22:51.597Z,1038.72
2019-01-03T11:23:51.549Z,1038.69
2019-01-03T11:24:51.301Z,1038.64
2019-01-03T11:25:51.546Z,1038.67
2019-01-03T11:26:51.259Z,1038.62
2019-01-03T11:27:51.414Z,1038.59
2019-01-03T11:28:51.642Z,1038.61
2019-01-03T11:29:51.418Z,1038.65
2019-01-03T11:30:51.544Z,1038.66
2019-01-03T11:31:52.137Z,1038.59
2019-01-03T11:32:51.477Z,1038.64
2019-01-03T11:33:51.398Z,1038.61
2019-01-03T11:34:51.522Z,1038.61
2019-01-03T11:35:51.386Z,1038.6
2019-01-03T11:36:51.717Z,1038.56
2019-01-03T11:37:51.503Z,1038.54
2019-01-03T11:38:51.567Z,1038.53
2019-01-03T11:39:51.269Z,1038.51
2019-01-03T11:40:51.942Z,1038.48
2019-01-03T11:41:51.867Z,1038.42
2019-01-03T11:42:51.393Z,1038.42
2019-01-03T11:43:51.621Z,1038.38
2019-01-03T11:44:51.554Z,1038.33
2019-01-03T11:45:51.657Z,1038.35
2019-01-03T11:46:51.346Z,1038.34
2019-01-03T11:47:51.573Z,1038.31
2019-01-03T11:48:51.411Z,1038.28
2019-01-03T11:49:51.249Z,1038.33
2019-01-03T11:50:51.436Z,1038.31
2019-01-03T11:51:51.348Z,1038.31
2019-01-03T11:52:51.363Z,1038.27
2019-01-03T11:53:51.308Z,1038.28
2019-01-03T11:54:51.265Z,1038.3
2019-01-03T11:55:52.044Z,1038.27
2019-01-03T11:56:51.298Z,1038.22
2019-01-03T11:57:51.390Z,1038.25
2019-01-03T11:58:51.447Z,1038.26
2019-01-03T11:59:51.432Z,1038.27
2019-01-03T12:00:51.721Z,1038.31
2019-01-03T12:01:51.269Z,1038.28
2019-01-03T12:02:51.251Z,1038.21
2019-01-03T12:03:51.325Z,1038.23
2019-01-03T12:04:51.447Z,1038.22
2019-01-03T12:05:51.271Z,1038.2
2019-01-03T12:06:51.244Z,1038.19
2019-01-03T12:07:51.348Z,1038.17
2019-01-03T12:08:51.375Z,1038.17